Time;durP1;ratioP1;P1;durP2;ratioP2;P2;SDS_P1;SDS_P2;PMS_P1;PMS_P2;Temp;Humidity;BMP_temperature;BMP_pressure;BME280_temperature;BME280_humidity;BME280_pressure;Samples;Min_cycle;Max_cycle;Signal;HPM_P1;HPM_P2
2022/01/01 00:02:24;;;;;;;;;;;13.30;99.90;;;;;;5028539;28;19951;-72
2022/01/01 00:05:04;;;;;;;;;;;13.30;99.90;;;;;;5027879;28;20523;-72
2022/01/01 00:07:33;;;;;;;;;;;13.30;99.90;;;;;;5028917;28;20353;-72
2022/01/01 00:10:00;;;;;;;;;;;13.40;99.90;;;;;;5028570;28;19936;-72
2022/01/01 00:12:28;;;;;;;;;;;13.30;99.90;;;;;;5028854;28;20317;-72
2022/01/01 00:14:56;;;;;;;;;;;13.30;99.90;;;;;;5028726;28;19925;-72
2022/01/01 00:17:23;;;;;;;;;;;13.30;99.90;;;;;;5028600;28;20300;-73
2022/01/01 00:19:51;;;;;;;;;;;13.30;99.90;;;;;;5027508;28;19935;-72
2022/01/01 00:22:18;;;;;;;;;;;13.30;99.90;;;;;;5027177;28;19924;-72
2022/01/01 00:24:46;;;;;;;;;;;13.30;99.90;;;;;;5028380;28;19925;-72
2022/01/01 00:27:13;;;;;;;;;;;13.30;99.90;;;;;;5027198;28;19929;-72
2022/01/01 00:29:41;;;;;;;;;;;13.30;99.90;;;;;;5026763;28;20467;-72
2022/01/01 00:32:08;;;;;;;;;;;13.30;99.90;;;;;;5026238;28;20591;-72
2022/01/01 00:34:36;;;;;;;;;;;13.30;99.90;;;;;;5028243;28;19925;-73
2022/01/01 00:37:04;;;;;;;;;;;13.30;99.90;;;;;;5028076;28;19928;-72
2022/01/01 00:39:31;;;;;;;;;;;13.20;99.90;;;;;;5059366;28;19947;-72
2022/01/01 00:41:59;;;;;;;;;;;13.20;99.90;;;;;;5023134;28;20382;-73
2022/01/01 00:44:26;;;;;;;;;;;13.30;99.90;;;;;;5039537;28;19932;-73
2022/01/01 00:46:54;;;;;;;;;;;13.30;99.90;;;;;;5007722;28;20363;-73
2022/01/01 00:49:22;;;;;;;;;;;13.30;99.90;;;;;;5007792;28;19928;-73
2022/01/01 00:51:49;;;;;;;;;;;13.30;99.90;;;;;;5008069;28;20374;-73
2022/01/01 00:54:17;;;;;;;;;;;13.30;99.90;;;;;;5006699;28;19921;-73
2022/01/01 00:56:44;;;;;;;;;;;13.30;99.90;;;;;;5007955;28;19925;-73
2022/01/01 00:59:12;;;;;;;;;;;13.20;99.90;;;;;;5007797;28;19925;-73
2022/01/01 01:01:40;;;;;;;;;;;13.20;99.90;;;;;;5008205;28;19921;-73
2022/01/01 01:04:07;;;;;;;;;;;13.20;99.90;;;;;;5007517;28;19925;-73
2022/01/01 01:06:35;;;;;;;;;;;13.20;99.90;;;;;;5022000;28;20799;-72
2022/01/01 01:09:02;;;;;;;;;;;13.20;99.90;;;;;;5040383;28;19933;-73
2022/01/01 01:11:30;;;;;;;;;;;13.20;99.90;;;;;;5007698;28;20681;-72
2022/01/01 01:13:59;;;;;;;;;;;13.20;99.90;;;;;;5006449;28;19928;-71
2022/01/01 01:16:27;;;;;;;;;;;13.20;99.90;;;;;;5007866;28;20549;-73
2022/01/01 01:18:57;;;;;;;;;;;13.20;99.90;;;;;;5007415;28;19926;-72
2022/01/01 01:21:25;;;;;;;;;;;13.20;99.90;;;;;;5039224;28;20293;-72
2022/01/01 01:23:54;;;;;;;;;;;13.20;99.90;;;;;;5007583;28;20374;-72
2022/01/01 01:26:23;;;;;;;;;;;13.20;99.90;;;;;;5038935;28;19996;-72
2022/01/01 01:28:52;;;;;;;;;;;13.20;99.90;;;;;;5007297;28;20381;-73
2022/01/01 01:31:19;;;;;;;;;;;13.20;99.90;;;;;;5007540;28;19921;-72
2022/01/01 01:33:47;;;;;;;;;;;13.20;99.90;;;;;;5005757;28;19929;-72
2022/01/01 01:36:15;;;;;;;;;;;13.20;99.90;;;;;;5015836;28;19925;-72
2022/01/01 01:38:42;;;;;;;;;;;13.20;99.90;;;;;;5026989;28;19921;-73
2022/01/01 01:41:10;;;;;;;;;;;13.20;99.90;;;;;;5021000;28;19922;-72
2022/01/01 01:43:37;;;;;;;;;;;13.20;99.90;;;;;;5005965;28;19940;-72
2022/01/01 01:46:06;;;;;;;;;;;13.20;99.90;;;;;;5026335;28;19971;-72
2022/01/01 01:48:35;;;;;;;;;;;13.20;99.90;;;;;;5026767;28;19921;-72
2022/01/01 01:51:03;;;;;;;;;;;13.20;99.90;;;;;;5026644;28;19925;-72
2022/01/01 01:53:32;;;;;;;;;;;13.20;99.90;;;;;;5026849;28;19932;-72
2022/01/01 01:56:00;;;;;;;;;;;13.20;99.90;;;;;;5025942;28;19997;-72
2022/01/01 01:58:30;;;;;;;;;;;13.20;99.90;;;;;;5026272;28;19979;-72
2022/01/01 02:03:37;;;;;;;;;;;13.10;99.90;;;;;;5023787;28;19920;-72
2022/01/01 02:06:05;;;;;;;;;;;13.10;99.90;;;;;;5025133;28;19925;-72
2022/01/01 02:08:33;;;;;;;;;;;13.10;99.90;;;;;;5025378;28;20428;-72
2022/01/01 02:11:02;;;;;;;;;;;13.10;99.90;;;;;;5026628;28;19932;-72
2022/01/01 02:13:34;;;;;;;;;;;13.00;99.90;;;;;;5026324;28;19928;-72
2022/01/01 02:16:28;;;;;;;;;;;13.00;99.90;;;;;;5021804;28;19928;-73
2022/01/01 02:18:56;;;;;;;;;;;13.00;99.90;;;;;;5006741;28;19928;-72
2022/01/01 02:21:29;;;;;;;;;;;12.90;99.90;;;;;;5010655;28;19993;-72
2022/01/01 02:23:59;;;;;;;;;;;12.90;99.90;;;;;;5010833;28;19929;-72
2022/01/01 02:26:31;;;;;;;;;;;12.90;99.90;;;;;;5010610;28;19926;-72
2022/01/01 02:28:59;;;;;;;;;;;12.90;99.90;;;;;;5010758;28;19940;-72
2022/01/01 02:31:27;;;;;;;;;;;12.90;99.90;;;;;;5019655;28;20426;-71
2022/01/01 02:33:54;;;;;;;;;;;12.90;99.90;;;;;;5045222;28;20396;-71
2022/01/01 02:36:32;;;;;;;;;;;12.90;99.90;;;;;;5028527;28;19925;-72
2022/01/01 02:39:00;;;;;;;;;;;12.90;99.90;;;;;;5030122;28;19921;-73
2022/01/01 02:41:27;;;;;;;;;;;12.80;99.90;;;;;;5028824;28;19944;-71
2022/01/01 02:43:56;;;;;;;;;;;12.90;99.90;;;;;;5030249;28;19925;-72
2022/01/01 02:46:24;;;;;;;;;;;12.80;99.90;;;;;;5030178;28;20396;-72
2022/01/01 02:48:51;;;;;;;;;;;12.80;99.90;;;;;;5030003;28;20401;-72
2022/01/01 02:51:19;;;;;;;;;;;12.90;99.90;;;;;;5030613;28;19944;-72
2022/01/01 02:53:46;;;;;;;;;;;12.90;99.90;;;;;;5030703;28;19928;-71
2022/01/01 02:56:13;;;;;;;;;;;12.90;99.90;;;;;;5028889;28;19921;-72
2022/01/01 02:58:42;;;;;;;;;;;12.80;99.90;;;;;;5030031;28;20369;-72
2022/01/01 03:01:10;;;;;;;;;;;12.80;99.90;;;;;;5029155;28;20324;-72
2022/01/01 03:03:37;;;;;;;;;;;12.90;99.90;;;;;;5030044;28;19921;-72
2022/01/01 03:06:05;;;;;;;;;;;12.80;99.90;;;;;;5022972;28;19928;-72
2022/01/01 03:08:32;;;;;;;;;;;12.90;99.90;;;;;;5009228;28;19932;-72
2022/01/01 03:11:02;;;;;;;;;;;12.90;99.90;;;;;;5010596;28;19922;-72
2022/01/01 03:13:30;;;;;;;;;;;12.90;99.90;;;;;;5010619;28;19944;-72
2022/01/01 03:15:57;;;;;;;;;;;12.90;99.90;;;;;;5008982;28;19921;-72
2022/01/01 03:18:25;;;;;;;;;;;12.90;99.90;;;;;;5009390;28;19928;-72
2022/01/01 03:20:52;;;;;;;;;;;13.00;99.90;;;;;;5010272;28;19944;-72
2022/01/01 03:23:20;;;;;;;;;;;13.00;99.90;;;;;;5010767;28;19925;-72
2022/01/01 03:25:47;;;;;;;;;;;13.00;99.90;;;;;;5010571;28;19922;-72
2022/01/01 03:28:15;;;;;;;;;;;13.00;99.90;;;;;;5009088;28;19928;-72
2022/01/01 03:30:43;;;;;;;;;;;13.00;99.90;;;;;;5009466;28;19932;-72
2022/01/01 03:33:10;;;;;;;;;;;13.10;99.90;;;;;;5008802;28;19948;-72
2022/01/01 03:35:38;;;;;;;;;;;13.00;99.90;;;;;;5009914;28;19932;-72
2022/01/01 03:38:05;;;;;;;;;;;13.10;99.90;;;;;;5008862;28;19930;-72
2022/01/01 03:40:33;;;;;;;;;;;13.00;99.90;;;;;;5029763;28;19925;-72
2022/01/01 03:43:00;;;;;;;;;;;13.10;99.90;;;;;;5028316;28;19924;-72
2022/01/01 03:45:27;;;;;;;;;;;13.10;99.90;;;;;;5009806;28;19929;-72
2022/01/01 03:47:55;;;;;;;;;;;13.10;99.90;;;;;;5009954;28;19921;-72
2022/01/01 03:50:22;;;;;;;;;;;13.10;99.90;;;;;;5014296;28;19921;-72
2022/01/01 03:52:50;;;;;;;;;;;13.10;99.90;;;;;;5029275;28;20244;-72
2022/01/01 03:55:17;;;;;;;;;;;13.10;99.90;;;;;;5029387;28;20365;-72
2022/01/01 03:57:44;;;;;;;;;;;13.20;99.90;;;;;;5029299;28;19928;-72
2022/01/01 04:00:12;;;;;;;;;;;13.20;99.90;;;;;;5029812;28;19921;-72
2022/01/01 04:02:42;;;;;;;;;;;13.20;99.90;;;;;;5029804;28;20336;-72
2022/01/01 04:05:10;;;;;;;;;;;13.10;99.90;;;;;;5060957;28;20008;-72
2022/01/01 04:07:37;;;;;;;;;;;13.10;99.90;;;;;;5029303;28;19925;-73
2022/01/01 04:10:05;;;;;;;;;;;13.10;99.90;;;;;;5011789;28;19976;-73
2022/01/01 04:12:33;;;;;;;;;;;13.10;99.90;;;;;;5029527;28;20564;-73
2022/01/01 04:15:02;;;;;;;;;;;13.10;99.90;;;;;;5018843;28;20333;-73
2022/01/01 04:17:35;;;;;;;;;;;13.00;99.90;;;;;;5009149;28;19944;-73
2022/01/01 04:20:03;;;;;;;;;;;13.10;99.90;;;;;;5008704;28;19921;-73
2022/01/01 04:22:30;;;;;;;;;;;13.10;99.90;;;;;;5008586;28;19925;-72
2022/01/01 04:24:58;;;;;;;;;;;13.10;99.90;;;;;;5009024;28;20085;-73
2022/01/01 04:27:26;;;;;;;;;;;13.10;99.90;;;;;;5009140;28;19936;-72
2022/01/01 04:29:53;;;;;;;;;;;13.10;99.90;;;;;;5028150;28;20592;-72
2022/01/01 04:32:21;;;;;;;;;;;13.10;99.90;;;;;;5028739;28;19925;-73
2022/01/01 04:34:48;;;;;;;;;;;13.10;99.90;;;;;;5027076;28;19960;-73
2022/01/01 04:37:18;;;;;;;;;;;13.10;99.90;;;;;;5026803;28;20373;-73
2022/01/01 04:39:46;;;;;;;;;;;13.10;99.90;;;;;;5023068;28;19933;-73
2022/01/01 04:42:14;;;;;;;;;;;13.10;99.90;;;;;;5008287;28;19921;-73
2022/01/01 04:44:41;;;;;;;;;;;13.10;99.90;;;;;;5007802;28;19921;-72
2022/01/01 04:47:10;;;;;;;;;;;13.10;99.90;;;;;;5026751;28;19921;-73
2022/01/01 04:49:37;;;;;;;;;;;13.10;99.90;;;;;;5028254;28;19925;-73
2022/01/01 04:52:05;;;;;;;;;;;13.10;99.90;;;;;;5027157;28;19921;-72
2022/01/01 04:54:34;;;;;;;;;;;13.10;99.90;;;;;;5028004;28;20413;-73
2022/01/01 04:57:01;;;;;;;;;;;13.10;99.90;;;;;;5011036;28;19921;-73
2022/01/01 04:59:29;;;;;;;;;;;13.10;99.90;;;;;;5009081;28;20389;-72
2022/01/01 05:01:56;;;;;;;;;;;13.10;99.90;;;;;;5040177;28;20571;-72
2022/01/01 05:04:26;;;;;;;;;;;13.10;99.90;;;;;;5008727;28;19925;-72
2022/01/01 05:06:55;;;;;;;;;;;13.10;99.90;;;;;;5039566;28;20406;-72
2022/01/01 05:09:22;;;;;;;;;;;13.10;99.90;;;;;;5006688;28;19925;-72
2022/01/01 05:11:50;;;;;;;;;;;13.10;99.90;;;;;;5008099;28;19940;-72
2022/01/01 05:14:17;;;;;;;;;;;13.10;99.90;;;;;;5008025;28;19932;-72
2022/01/01 05:16:45;;;;;;;;;;;13.00;99.90;;;;;;5008096;28;19932;-72
2022/01/01 05:19:13;;;;;;;;;;;13.10;99.90;;;;;;5007623;28;19932;-73
2022/01/01 05:21:41;;;;;;;;;;;13.00;99.90;;;;;;5039791;28;20298;-71
2022/01/01 05:24:08;;;;;;;;;;;13.00;99.90;;;;;;5008048;28;19933;-72
2022/01/01 05:26:36;;;;;;;;;;;13.00;99.90;;;;;;5006754;28;19932;-71
2022/01/01 05:29:03;;;;;;;;;;;13.10;99.90;;;;;;5039328;28;20325;-71
2022/01/01 05:31:33;;;;;;;;;;;13.10;99.90;;;;;;5007876;28;19944;-72
2022/01/01 05:34:03;;;;;;;;;;;13.10;99.90;;;;;;5007878;28;19925;-72
2022/01/01 05:36:30;;;;;;;;;;;13.00;99.90;;;;;;5007795;28;20381;-71
2022/01/01 05:38:58;;;;;;;;;;;13.00;99.90;;;;;;5006032;28;19929;-72
2022/01/01 05:41:25;;;;;;;;;;;13.10;99.90;;;;;;5007905;28;19933;-71
2022/01/01 05:43:53;;;;;;;;;;;13.00;99.90;;;;;;5006394;28;20366;-72
2022/01/01 05:46:21;;;;;;;;;;;13.00;99.90;;;;;;5025668;28;19928;-72
2022/01/01 05:48:49;;;;;;;;;;;13.00;99.90;;;;;;5026165;28;19925;-73
2022/01/01 05:51:16;;;;;;;;;;;13.10;99.90;;;;;;5025878;28;20327;-72
2022/01/01 05:53:43;;;;;;;;;;;13.10;99.90;;;;;;5025971;28;19932;-71
2022/01/01 05:56:11;;;;;;;;;;;13.10;99.90;;;;;;5025013;28;19925;-71
2022/01/01 05:58:38;;;;;;;;;;;13.10;99.90;;;;;;5026872;28;20372;-72
2022/01/01 06:01:06;;;;;;;;;;;13.10;99.90;;;;;;5026581;28;19925;-72
2022/01/01 06:03:33;;;;;;;;;;;13.10;99.90;;;;;;5058255;28;20309;-72
2022/01/01 06:06:01;;;;;;;;;;;13.10;99.90;;;;;;5025890;28;19925;-72
2022/01/01 06:08:48;;;;;;;;;;;13.10;99.90;;;;;;5025217;28;19929;-72
2022/01/01 06:11:16;;;;;;;;;;;13.10;99.90;;;;;;5024904;28;19952;-72
2022/01/01 06:13:43;;;;;;;;;;;13.10;99.90;;;;;;5026483;28;19932;-73
2022/01/01 06:16:11;;;;;;;;;;;13.10;99.90;;;;;;5025302;28;19921;-73
2022/01/01 06:18:39;;;;;;;;;;;13.10;99.90;;;;;;5026279;28;19928;-72
2022/01/01 06:21:06;;;;;;;;;;;13.10;99.90;;;;;;5024727;28;19931;-73
2022/01/01 06:23:37;;;;;;;;;;;13.10;99.90;;;;;;5025925;28;19928;-72
2022/01/01 06:26:04;;;;;;;;;;;13.00;99.90;;;;;;5025296;28;19928;-73
2022/01/01 06:28:32;;;;;;;;;;;13.10;99.90;;;;;;5026495;28;19925;-72
2022/01/01 06:30:59;;;;;;;;;;;13.00;99.90;;;;;;5026424;28;19936;-72
2022/01/01 06:33:26;;;;;;;;;;;13.00;99.90;;;;;;5024924;28;19928;-73
2022/01/01 06:35:56;;;;;;;;;;;13.00;99.90;;;;;;5015013;28;19921;-73
2022/01/01 06:38:23;;;;;;;;;;;13.00;99.90;;;;;;5039862;28;19948;-73
2022/01/01 06:40:51;;;;;;;;;;;13.00;99.90;;;;;;5026260;28;19925;-72
2022/01/01 06:43:21;;;;;;;;;;;12.90;99.90;;;;;;5025931;28;19936;-72
2022/01/01 06:45:49;;;;;;;;;;;12.90;99.90;;;;;;5026017;28;19936;-72
2022/01/01 06:48:17;;;;;;;;;;;12.90;99.90;;;;;;5024117;28;19921;-73
2022/01/01 06:50:44;;;;;;;;;;;12.90;99.90;;;;;;5025866;28;19921;-73
2022/01/01 06:53:11;;;;;;;;;;;12.80;99.90;;;;;;5026025;28;19921;-73
2022/01/01 06:55:39;;;;;;;;;;;12.80;99.90;;;;;;5025671;28;19932;-73
2022/01/01 06:58:06;;;;;;;;;;;12.80;99.90;;;;;;5025878;28;19925;-73
2022/01/01 07:00:34;;;;;;;;;;;12.80;99.90;;;;;;5024459;28;19921;-73
2022/01/01 07:03:02;;;;;;;;;;;12.70;99.90;;;;;;5025763;28;19921;-73
2022/01/01 07:05:29;;;;;;;;;;;12.70;99.90;;;;;;5024902;28;20397;-72
2022/01/01 07:07:57;;;;;;;;;;;12.70;99.90;;;;;;5009690;28;19921;-73
2022/01/01 07:10:24;;;;;;;;;;;12.70;99.90;;;;;;5009647;28;19921;-72
2022/01/01 07:12:54;;;;;;;;;;;12.70;99.90;;;;;;5008459;28;19921;-72
2022/01/01 07:15:26;;;;;;;;;;;12.60;99.90;;;;;;5008132;28;19932;-73
2022/01/01 07:17:57;;;;;;;;;;;12.60;99.90;;;;;;5009618;28;20860;-72
2022/01/01 07:20:32;;;;;;;;;;;12.60;99.90;;;;;;5040409;28;19922;-73
2022/01/01 07:23:02;;;;;;;;;;;12.60;99.90;;;;;;5007856;28;19921;-72
2022/01/01 07:25:31;;;;;;;;;;;12.60;99.90;;;;;;5008281;28;19925;-73
2022/01/01 07:28:07;;;;;;;;;;;12.50;99.90;;;;;;5009406;28;19925;-72
2022/01/01 07:30:38;;;;;;;;;;;12.50;99.90;;;;;;5016844;28;19921;-72
2022/01/01 07:33:13;;;;;;;;;;;12.50;99.90;;;;;;5040905;28;19921;-73
2022/01/01 07:35:41;;;;;;;;;;;12.50;99.90;;;;;;5025849;28;20727;-73
2022/01/01 07:38:08;;;;;;;;;;;12.50;99.90;;;;;;5027024;28;20145;-73
2022/01/01 07:40:37;;;;;;;;;;;12.50;99.90;;;;;;5024140;28;20408;-74
2022/01/01 07:43:14;;;;;;;;;;;12.50;99.90;;;;;;5027088;28;19929;-73
2022/01/01 07:45:42;;;;;;;;;;;12.50;99.90;;;;;;5026647;28;19928;-73
2022/01/01 07:48:10;;;;;;;;;;;12.50;99.90;;;;;;5022332;28;19926;-72
2022/01/01 07:50:38;;;;;;;;;;;12.50;99.90;;;;;;5006956;28;19921;-73
2022/01/01 07:53:09;;;;;;;;;;;12.50;99.90;;;;;;5022222;28;19937;-73
2022/01/01 07:55:37;;;;;;;;;;;12.50;99.90;;;;;;5018589;28;19928;-73
2022/01/01 07:58:05;;;;;;;;;;;12.50;99.90;;;;;;5021847;28;19929;-73
2022/01/01 08:00:32;;;;;;;;;;;12.40;99.90;;;;;;5020874;28;20373;-73
2022/01/01 08:03:00;;;;;;;;;;;12.40;99.90;;;;;;5021690;28;19925;-73
2022/01/01 08:05:28;;;;;;;;;;;12.40;99.90;;;;;;5018079;28;20376;-72
2022/01/01 08:08:01;;;;;;;;;;;12.40;99.90;;;;;;5010460;28;19936;-73
2022/01/01 08:10:31;;;;;;;;;;;12.40;99.90;;;;;;5049585;28;19936;-72
2022/01/01 08:12:59;;;;;;;;;;;12.50;99.90;;;;;;5016727;28;19926;-73
2022/01/01 08:15:26;;;;;;;;;;;12.40;99.90;;;;;;5026976;28;19921;-72
2022/01/01 08:17:54;;;;;;;;;;;12.50;99.90;;;;;;5038079;28;19925;-73
2022/01/01 08:20:22;;;;;;;;;;;12.40;99.90;;;;;;5023119;28;20517;-72
2022/01/01 08:22:50;;;;;;;;;;;12.40;99.90;;;;;;5008025;28;19925;-72
2022/01/01 08:25:20;;;;;;;;;;;12.40;99.90;;;;;;5021356;28;19928;-73
2022/01/01 08:27:47;;;;;;;;;;;12.40;99.90;;;;;;5027426;28;19921;-74
2022/01/01 08:30:15;;;;;;;;;;;12.40;99.90;;;;;;5027505;28;20289;-73
2022/01/01 08:32:42;;;;;;;;;;;12.40;99.90;;;;;;5027810;28;19928;-73
2022/01/01 08:35:10;;;;;;;;;;;12.40;99.90;;;;;;5026187;28;19925;-73
2022/01/01 08:37:37;;;;;;;;;;;12.40;99.90;;;;;;5006258;28;19933;-73
2022/01/01 08:40:06;;;;;;;;;;;12.40;99.90;;;;;;5024240;28;20293;-74
2022/01/01 08:42:33;;;;;;;;;;;12.40;99.90;;;;;;5023132;28;19925;-74
2022/01/01 08:45:01;;;;;;;;;;;12.40;99.90;;;;;;5027630;28;19925;-73
2022/01/01 08:47:29;;;;;;;;;;;12.40;99.90;;;;;;5025675;28;19925;-74
2022/01/01 08:49:56;;;;;;;;;;;12.40;99.90;;;;;;5026098;28;19920;-74
2022/01/01 08:52:24;;;;;;;;;;;12.40;99.90;;;;;;5027565;28;20281;-70
2022/01/01 08:54:55;;;;;;;;;;;12.40;99.90;;;;;;5025208;28;19925;-72
2022/01/01 08:57:23;;;;;;;;;;;12.50;99.90;;;;;;5025249;28;20000;-72
2022/01/01 08:59:51;;;;;;;;;;;12.50;99.90;;;;;;5026907;28;19936;-73
2022/01/01 09:02:19;;;;;;;;;;;12.50;99.90;;;;;;5026087;28;19928;-72
2022/01/01 09:04:47;;;;;;;;;;;12.50;99.90;;;;;;5026569;28;20364;-72
2022/01/01 09:07:15;;;;;;;;;;;12.50;99.90;;;;;;5018482;28;20536;-72
2022/01/01 09:09:43;;;;;;;;;;;12.50;99.90;;;;;;5007066;28;19928;-72
2022/01/01 09:12:11;;;;;;;;;;;12.50;99.90;;;;;;5019672;28;19925;-72
2022/01/01 09:14:38;;;;;;;;;;;12.60;99.90;;;;;;5026444;28;20392;-73
2022/01/01 09:17:06;;;;;;;;;;;12.60;99.90;;;;;;5024017;28;19932;-73
2022/01/01 09:19:33;;;;;;;;;;;12.70;99.90;;;;;;5025000;28;19932;-73
2022/01/01 09:22:01;;;;;;;;;;;12.70;99.90;;;;;;5038754;28;19921;-75
2022/01/01 09:24:29;;;;;;;;;;;12.80;99.90;;;;;;5022135;28;19926;-75
2022/01/01 09:26:56;;;;;;;;;;;12.80;99.90;;;;;;5005755;28;19944;-75
2022/01/01 09:29:24;;;;;;;;;;;12.80;99.90;;;;;;5004735;28;19925;-75
2022/01/01 09:31:52;;;;;;;;;;;12.80;99.90;;;;;;5005114;28;19922;-74
2022/01/01 09:34:19;;;;;;;;;;;12.90;99.90;;;;;;5005192;28;20101;-75
2022/01/01 09:36:49;;;;;;;;;;;12.90;99.90;;;;;;5005040;28;20281;-75
2022/01/01 09:39:17;;;;;;;;;;;13.00;99.90;;;;;;5014849;28;19921;-75
2022/01/01 09:41:44;;;;;;;;;;;13.00;99.90;;;;;;5008230;28;19944;-75
2022/01/01 09:44:14;;;;;;;;;;;13.10;99.90;;;;;;5026312;28;19921;-75
2022/01/01 09:46:44;;;;;;;;;;;13.20;99.90;;;;;;5026477;28;19928;-75
2022/01/01 09:49:18;;;;;;;;;;;13.20;99.90;;;;;;5024890;28;19921;-75
2022/01/01 09:51:46;;;;;;;;;;;13.30;99.90;;;;;;5025981;28;20611;-75
2022/01/01 09:54:14;;;;;;;;;;;13.40;99.90;;;;;;5009144;28;19925;-75
2022/01/01 09:56:41;;;;;;;;;;;13.50;99.90;;;;;;5020990;28;19932;-75
2022/01/01 09:59:11;;;;;;;;;;;13.60;99.90;;;;;;5005469;28;20332;-75
2022/01/01 10:01:43;;;;;;;;;;;13.80;99.90;;;;;;5006388;28;19925;-75
2022/01/01 10:04:12;;;;;;;;;;;13.90;99.90;;;;;;5021789;28;19933;-75
2022/01/01 10:06:40;;;;;;;;;;;14.00;99.90;;;;;;5042945;28;19931;-75
2022/01/01 10:09:09;;;;;;;;;;;14.10;99.90;;;;;;5024680;28;19932;-75
2022/01/01 10:11:37;;;;;;;;;;;14.10;99.90;;;;;;5041254;28;19928;-75
2022/01/01 10:14:06;;;;;;;;;;;14.20;99.90;;;;;;5025910;28;19921;-75
2022/01/01 10:16:44;;;;;;;;;;;14.40;99.90;;;;;;5018003;28;20266;-75
2022/01/01 10:19:12;;;;;;;;;;;14.70;99.90;;;;;;5035349;28;19929;-75
2022/01/01 10:21:42;;;;;;;;;;;15.10;99.90;;;;;;5016853;28;19932;-75
2022/01/01 10:24:14;;;;;;;;;;;15.50;99.90;;;;;;4999524;28;19922;-75
2022/01/01 10:29:31;;;;;;;;;;;16.20;99.90;;;;;;5003004;28;19925;-76
2022/01/01 10:31:59;;;;;;;;;;;16.20;99.90;;;;;;5003248;28;19922;-76
2022/01/01 10:34:28;;;;;;;;;;;16.10;99.90;;;;;;5009830;28;20287;-76
2022/01/01 10:36:57;;;;;;;;;;;16.10;99.90;;;;;;5021590;28;19932;-76
2022/01/01 10:39:24;;;;;;;;;;;16.20;99.90;;;;;;5004599;28;20289;-75
2022/01/01 10:41:54;;;;;;;;;;;16.40;99.90;;;;;;5008327;28;19956;-75
2022/01/01 10:44:22;;;;;;;;;;;16.60;99.90;;;;;;5008300;28;19921;-76
2022/01/01 10:46:51;;;;;;;;;;;16.80;99.90;;;;;;5018174;28;20362;-76
2022/01/01 10:49:35;;;;;;;;;;;17.10;99.90;;;;;;5020222;28;19925;-75
2022/01/01 10:52:18;;;;;;;;;;;17.30;99.90;;;;;;5008365;28;20094;-75
2022/01/01 10:54:52;;;;;;;;;;;17.60;99.90;;;;;;5009134;28;19925;-76
2022/01/01 10:57:22;;;;;;;;;;;18.00;99.90;;;;;;5009489;28;20147;-75
2022/01/01 10:59:50;;;;;;;;;;;18.30;99.90;;;;;;5041731;28;19933;-75
2022/01/01 11:02:22;;;;;;;;;;;18.20;99.90;;;;;;5020330;28;19928;-75
2022/01/01 11:04:50;;;;;;;;;;;18.20;99.90;;;;;;5023716;28;19922;-75
2022/01/01 11:07:27;;;;;;;;;;;18.00;99.90;;;;;;5026486;28;19936;-75
2022/01/01 11:09:55;;;;;;;;;;;17.80;99.90;;;;;;5028578;28;19921;-75
2022/01/01 11:12:27;;;;;;;;;;;17.60;99.90;;;;;;5008696;28;20392;-75
2022/01/01 11:14:55;;;;;;;;;;;17.30;99.90;;;;;;5048554;28;19925;-75
2022/01/01 11:17:23;;;;;;;;;;;17.20;99.90;;;;;;5016576;28;19925;-75
2022/01/01 11:19:51;;;;;;;;;;;17.40;99.90;;;;;;5023950;28;19940;-75
2022/01/01 11:22:19;;;;;;;;;;;17.50;99.90;;;;;;5011725;28;19921;-75
2022/01/01 11:24:47;;;;;;;;;;;17.70;99.90;;;;;;5008306;28;19921;-76
2022/01/01 11:27:15;;;;;;;;;;;17.70;99.90;;;;;;5008427;28;19922;-76
2022/01/01 11:29:49;;;;;;;;;;;17.90;99.90;;;;;;5022902;28;19925;-76
2022/01/01 11:32:21;;;;;;;;;;;18.10;99.90;;;;;;5013900;28;20358;-76
2022/01/01 11:34:51;;;;;;;;;;;17.90;99.90;;;;;;5008416;28;19925;-76
2022/01/01 11:37:20;;;;;;;;;;;17.80;99.90;;;;;;5022495;28;19932;-76
2022/01/01 11:39:53;;;;;;;;;;;18.00;99.90;;;;;;5014572;28;19921;-76
2022/01/01 11:42:20;;;;;;;;;;;18.10;99.90;;;;;;5021774;28;19929;-76
2022/01/01 11:44:54;;;;;;;;;;;18.10;99.90;;;;;;5023304;28;20517;-76
2022/01/01 11:47:23;;;;;;;;;;;18.10;99.90;;;;;;5008465;28;19925;-76
2022/01/01 11:49:52;;;;;;;;;;;18.30;99.90;;;;;;5025691;28;19940;-76
2022/01/01 11:52:38;;;;;;;;;;;18.50;99.90;;;;;;5026367;28;19921;-76
2022/01/01 11:55:16;;;;;;;;;;;18.50;99.90;;;;;;5014925;28;19921;-76
2022/01/01 11:57:58;;;;;;;;;;;18.30;99.90;;;;;;5017424;28;19939;-76
2022/01/01 12:00:26;;;;;;;;;;;18.40;99.90;;;;;;5009121;28;19925;-76
2022/01/01 12:03:16;;;;;;;;;;;18.50;99.90;;;;;;5025429;28;19947;-76
2022/01/01 12:06:01;;;;;;;;;;;18.40;99.90;;;;;;5005200;28;19925;-76
2022/01/01 12:08:42;;;;;;;;;;;18.10;99.90;;;;;;5027296;28;19961;-76
2022/01/01 12:11:26;;;;;;;;;;;17.60;99.90;;;;;;5052748;28;19929;-75
2022/01/01 12:13:57;;;;;;;;;;;17.30;99.90;;;;;;5049050;28;19925;-75
2022/01/01 12:16:26;;;;;;;;;;;16.80;99.90;;;;;;5023936;28;19928;-75
2022/01/01 12:19:02;;;;;;;;;;;16.60;99.90;;;;;;5009608;28;19933;-75
2022/01/01 12:21:37;;;;;;;;;;;16.50;99.90;;;;;;5010040;28;19932;-75
2022/01/01 12:24:08;;;;;;;;;;;16.50;99.90;;;;;;5019313;28;20374;-75
2022/01/01 12:26:35;;;;;;;;;;;16.40;99.90;;;;;;5023313;28;19932;-75
2022/01/01 12:29:03;;;;;;;;;;;16.60;99.90;;;;;;5006998;28;19925;-76
2022/01/01 12:31:31;;;;;;;;;;;16.90;99.90;;;;;;5013845;28;19925;-76
2022/01/01 12:34:08;;;;;;;;;;;17.30;99.90;;;;;;5027102;28;19925;-75
2022/01/01 12:36:39;;;;;;;;;;;17.80;99.90;;;;;;5016484;28;19940;-77
2022/01/01 12:39:08;;;;;;;;;;;18.00;99.90;;;;;;5022405;28;20381;-76
2022/01/01 12:41:44;;;;;;;;;;;17.80;99.90;;;;;;5022735;28;19932;-76
2022/01/01 12:44:17;;;;;;;;;;;17.60;99.90;;;;;;5025582;28;20309;-75
2022/01/01 12:46:55;;;;;;;;;;;17.40;99.90;;;;;;5039052;28;20687;-74
2022/01/01 12:49:25;;;;;;;;;;;17.10;99.90;;;;;;5024958;28;19936;-75
2022/01/01 12:51:56;;;;;;;;;;;16.70;99.90;;;;;;5009364;28;19925;-75
2022/01/01 12:54:26;;;;;;;;;;;16.40;99.90;;;;;;5024922;28;19921;-75
2022/01/01 12:56:56;;;;;;;;;;;16.20;99.90;;;;;;5005052;28;20005;-76
2022/01/01 12:59:23;;;;;;;;;;;16.00;99.90;;;;;;5022971;28;19929;-76
2022/01/01 13:01:58;;;;;;;;;;;15.90;99.90;;;;;;5026037;28;19996;-76
2022/01/01 13:04:26;;;;;;;;;;;15.70;99.90;;;;;;5011007;28;19932;-76
2022/01/01 13:06:58;;;;;;;;;;;15.60;99.90;;;;;;5022757;28;19921;-75
2022/01/01 13:09:28;;;;;;;;;;;15.70;99.90;;;;;;5021959;28;19925;-76
2022/01/01 13:11:59;;;;;;;;;;;15.60;99.90;;;;;;5020222;28;19925;-75
2022/01/01 13:14:28;;;;;;;;;;;15.60;99.90;;;;;;5012680;28;20415;-75
2022/01/01 13:16:56;;;;;;;;;;;15.60;99.90;;;;;;5039818;28;19947;-76
2022/01/01 13:19:24;;;;;;;;;;;15.60;99.90;;;;;;5026006;28;19925;-75
2022/01/01 13:21:54;;;;;;;;;;;15.60;99.90;;;;;;5024039;28;19940;-75
2022/01/01 13:24:26;;;;;;;;;;;15.60;99.90;;;;;;5026638;28;20466;-75
2022/01/01 13:26:54;;;;;;;;;;;15.60;99.90;;;;;;5025628;28;19925;-75
2022/01/01 13:29:22;;;;;;;;;;;15.80;99.90;;;;;;5006877;28;20007;-75
2022/01/01 13:31:53;;;;;;;;;;;16.10;99.90;;;;;;5022681;28;19928;-76
2022/01/01 13:34:21;;;;;;;;;;;16.60;99.90;;;;;;5017216;28;19929;-75
2022/01/01 13:36:49;;;;;;;;;;;16.90;99.90;;;;;;5046460;28;19948;-75
2022/01/01 13:39:20;;;;;;;;;;;17.10;99.90;;;;;;5042942;28;19921;-75
2022/01/01 13:41:53;;;;;;;;;;;17.20;99.90;;;;;;5005842;28;19921;-75
2022/01/01 13:44:21;;;;;;;;;;;17.10;99.90;;;;;;5024112;28;19970;-75
2022/01/01 13:46:49;;;;;;;;;;;17.00;99.90;;;;;;5022921;28;19932;-76
2022/01/01 13:49:18;;;;;;;;;;;16.90;99.90;;;;;;5014169;28;19922;-76
2022/01/01 13:51:53;;;;;;;;;;;17.00;99.90;;;;;;5004598;28;19940;-76
2022/01/01 13:54:22;;;;;;;;;;;17.00;99.90;;;;;;5005354;28;19953;-77
2022/01/01 13:56:53;;;;;;;;;;;17.00;99.90;;;;;;5005621;28;19921;-76
2022/01/01 13:59:25;;;;;;;;;;;16.90;99.90;;;;;;5040568;28;19925;-76
2022/01/01 14:01:54;;;;;;;;;;;16.90;99.90;;;;;;5023966;28;19925;-76
2022/01/01 14:04:26;;;;;;;;;;;16.70;99.90;;;;;;5016181;28;19921;-75
2022/01/01 14:07:04;;;;;;;;;;;16.50;99.90;;;;;;5017490;28;20355;-76
2022/01/01 14:09:31;;;;;;;;;;;16.30;99.90;;;;;;5015389;28;20349;-75
2022/01/01 14:11:59;;;;;;;;;;;16.10;99.90;;;;;;5015014;28;19932;-76
2022/01/01 14:14:28;;;;;;;;;;;15.90;99.90;;;;;;5023760;28;19921;-76
2022/01/01 14:16:56;;;;;;;;;;;15.60;99.90;;;;;;5030367;28;19936;-75
2022/01/01 14:19:24;;;;;;;;;;;15.50;99.90;;;;;;5029076;28;19920;-76
2022/01/01 14:21:53;;;;;;;;;;;15.30;99.90;;;;;;5030209;28;20380;-76
2022/01/01 14:24:23;;;;;;;;;;;15.20;99.90;;;;;;5029624;28;19925;-76
2022/01/01 14:26:52;;;;;;;;;;;15.10;99.90;;;;;;5030160;28;19925;-76
2022/01/01 14:29:24;;;;;;;;;;;15.00;99.90;;;;;;5029171;28;20320;-76
2022/01/01 14:31:51;;;;;;;;;;;14.90;99.90;;;;;;5029451;28;20270;-76
2022/01/01 14:34:19;;;;;;;;;;;14.80;99.90;;;;;;5024447;28;19922;-76